Time;durP1;ratioP1;P1;durP2;ratioP2;P2;SDS_P1;SDS_P2;PMS_P1;PMS_P2;Temp;Humidity;BMP_temperature;BMP_pressure;BME280_temperature;BME280_humidity;BME280_pressure;Samples;Min_cycle;Max_cycle;Signal;HPM_P1;HPM_P2
2023/04/19 00:00:37;;;;;;;11.20;9.33;;;11.20;1.00;;;;;;5064734;28;20689;-59
2023/04/19 00:03:06;;;;;;;9.77;8.33;;;11.20;1.00;;;;;;5065250;28;20303;-60
2023/04/19 00:05:33;;;;;;;10.97;8.97;;;11.20;1.00;;;;;;5080825;28;20202;-62
2023/04/19 00:08:00;;;;;;;10.13;8.40;;;11.30;1.00;;;;;;5069298;28;20206;-60
2023/04/19 00:10:27;;;;;;;10.67;8.60;;;11.20;1.00;;;;;;5069028;28;20248;-59
2023/04/19 00:12:54;;;;;;;11.67;8.10;;;11.20;1.00;;;;;;5066745;28;20767;-59
2023/04/19 00:15:21;;;;;;;11.63;7.97;;;11.20;1.00;;;;;;5082678;28;20727;-58
2023/04/19 00:17:48;;;;;;;9.27;7.20;;;11.20;1.00;;;;;;5069849;28;20213;-61
2023/04/19 00:20:15;;;;;;;10.63;8.23;;;11.20;1.00;;;;;;5067480;28;20187;-58
2023/04/19 00:22:42;;;;;;;9.60;7.63;;;11.20;1.00;;;;;;5069822;28;20194;-62
2023/04/19 00:25:09;;;;;;;10.77;7.37;;;11.20;1.00;;;;;;5069661;28;20526;-58
2023/04/19 00:27:36;;;;;;;8.57;7.67;;;11.20;1.00;;;;;;5070452;28;20747;-60
2023/04/19 00:30:04;;;;;;;9.93;7.00;;;11.20;1.00;;;;;;5060763;28;20186;-58
2023/04/19 00:32:31;;;;;;;8.80;7.50;;;11.10;1.00;;;;;;5061648;28;20677;-60
2023/04/19 00:34:58;;;;;;;11.97;7.40;;;11.10;1.00;;;;;;5064190;28;20182;-59
2023/04/19 00:37:25;;;;;;;8.83;6.23;;;11.10;1.00;;;;;;5069189;28;20200;-61
2023/04/19 00:39:52;;;;;;;8.13;6.53;;;11.10;1.00;;;;;;5054356;28;20243;-59
2023/04/19 00:42:19;;;;;;;7.70;6.13;;;11.10;1.00;;;;;;5083981;28;20206;-60
2023/04/19 00:44:46;;;;;;;6.70;5.53;;;11.10;1.00;;;;;;5082047;28;20289;-58
2023/04/19 00:47:14;;;;;;;8.70;5.63;;;11.00;1.00;;;;;;5086445;28;20273;-59
2023/04/19 00:49:42;;;;;;;7.83;5.80;;;11.00;1.00;;;;;;5064502;28;20222;-58
2023/04/19 00:52:09;;;;;;;7.43;5.80;;;11.00;1.00;;;;;;5055511;28;20204;-58
2023/04/19 00:54:37;;;;;;;9.20;5.47;;;11.00;1.00;;;;;;5069479;28;20282;-61
2023/04/19 00:57:04;;;;;;;6.77;5.33;;;11.00;1.00;;;;;;5086597;28;20209;-59
2023/04/19 00:59:33;;;;;;;6.17;5.50;;;11.00;1.00;;;;;;5090157;28;20309;-60
2023/04/19 01:02:02;;;;;;;6.00;5.40;;;11.00;1.00;;;;;;5083819;22;20238;-68
2023/04/19 01:04:29;;;;;;;9.07;5.93;;;10.90;1.00;;;;;;5076154;28;20204;-69
2023/04/19 01:06:57;;;;;;;6.97;5.30;;;11.00;1.00;;;;;;5066032;28;20198;-68
2023/04/19 01:09:24;;;;;;;6.67;5.60;;;10.90;1.00;;;;;;5066373;28;20191;-68
2023/04/19 01:11:51;;;;;;;6.70;5.20;;;10.90;1.00;;;;;;5065909;28;20234;-68
2023/04/19 01:14:18;;;;;;;7.00;5.80;;;10.90;1.00;;;;;;5042955;28;20199;-68
2023/04/19 01:16:46;;;;;;;7.67;5.50;;;10.90;1.00;;;;;;5071605;28;20213;-68
2023/04/19 01:19:13;;;;;;;7.17;5.53;;;10.80;1.00;;;;;;5070967;28;20576;-69
2023/04/19 01:21:41;;;;;;;6.50;5.43;;;10.80;1.00;;;;;;5064162;28;20281;-66
2023/04/19 01:24:08;;;;;;;7.30;5.77;;;10.80;1.00;;;;;;5064046;28;20230;-69
2023/04/19 01:26:35;;;;;;;9.33;5.30;;;10.80;1.00;;;;;;5084370;28;20271;-68
2023/04/19 01:29:02;;;;;;;8.37;5.63;;;10.80;1.00;;;;;;5065892;28;20535;-69
2023/04/19 01:31:29;;;;;;;5.90;5.30;;;10.80;1.00;;;;;;5081318;28;20198;-68
2023/04/19 01:33:56;;;;;;;7.23;5.20;;;10.70;1.00;;;;;;5058393;28;20211;-68
2023/04/19 01:36:23;;;;;;;6.03;5.20;;;10.70;1.00;;;;;;5075749;28;20224;-69
2023/04/19 01:38:51;;;;;;;8.60;5.30;;;10.70;1.00;;;;;;5065704;28;20232;-69
2023/04/19 01:41:19;;;;;;;7.73;5.43;;;10.70;1.00;;;;;;5080842;28;20189;-70
2023/04/19 01:43:46;;;;;;;8.17;5.07;;;10.70;1.00;;;;;;5066472;28;20201;-70
2023/04/19 01:46:13;;;;;;;8.00;5.50;;;10.70;1.00;;;;;;5064873;28;20412;-67
2023/04/19 01:48:40;;;;;;;6.40;5.23;;;10.70;1.00;;;;;;5079484;28;20209;-68
2023/04/19 01:51:07;;;;;;;5.80;5.17;;;10.60;1.00;;;;;;5069386;28;20206;-68
2023/04/19 01:53:34;;;;;;;6.83;4.93;;;10.60;1.00;;;;;;5048566;28;20203;-67
2023/04/19 01:56:01;;;;;;;5.97;5.27;;;10.60;1.00;;;;;;5040546;28;20215;-68
2023/04/19 01:58:28;;;;;;;8.27;5.23;;;10.60;1.00;;;;;;5081392;28;20583;-67
2023/04/19 02:00:55;;;;;;;7.67;5.20;;;10.60;1.00;;;;;;5062475;28;20213;-68
2023/04/19 02:03:22;;;;;;;7.17;4.97;;;10.60;1.00;;;;;;5053790;28;20234;-67
2023/04/19 02:05:50;;;;;;;7.53;4.93;;;10.60;1.00;;;;;;5065907;28;20190;-67
2023/04/19 02:08:20;;;;;;;5.53;4.93;;;10.50;1.00;;;;;;5034466;28;20698;-67
2023/04/19 02:10:47;;;;;;;7.27;5.23;;;10.50;1.00;;;;;;5065142;28;20617;-67
2023/04/19 02:13:15;;;;;;;7.47;4.77;;;10.50;1.00;;;;;;5045572;28;20727;-68
2023/04/19 02:15:42;;;;;;;8.67;5.00;;;10.40;1.00;;;;;;5028491;28;20206;-67
2023/04/19 02:18:10;;;;;;;6.73;4.93;;;10.40;1.00;;;;;;5044757;28;20257;-70
2023/04/19 02:20:39;;;;;;;6.73;4.90;;;10.40;1.00;;;;;;5048139;28;20309;-70
2023/04/19 02:23:06;;;;;;;8.27;5.30;;;10.40;1.00;;;;;;5032616;28;20191;-67
2023/04/19 02:25:33;;;;;;;5.53;4.80;;;10.30;1.00;;;;;;5054986;28;20493;-67
2023/04/19 02:28:00;;;;;;;5.50;4.70;;;10.30;1.00;;;;;;5069756;28;20187;-67
2023/04/19 02:30:27;;;;;;;6.87;4.87;;;10.30;1.00;;;;;;5045010;28;20337;-66
2023/04/19 02:32:54;;;;;;;5.30;4.17;;;10.30;1.00;;;;;;5045232;28;20202;-66
2023/04/19 02:35:21;;;;;;;4.97;4.30;;;10.20;1.00;;;;;;5042583;28;20734;-69
2023/04/19 02:37:49;;;;;;;8.00;4.80;;;10.20;1.00;;;;;;5027725;28;20708;-69
2023/04/19 02:40:17;;;;;;;6.07;4.47;;;10.20;1.00;;;;;;5035777;28;20216;-70
2023/04/19 02:42:44;;;;;;;6.57;4.83;;;10.20;1.00;;;;;;5042280;28;20666;-70
2023/04/19 02:45:11;;;;;;;7.80;4.50;;;10.10;1.00;;;;;;5047670;28;20773;-70
2023/04/19 02:47:38;;;;;;;7.43;4.80;;;10.10;1.00;;;;;;5044967;28;20842;-69
2023/04/19 02:50:06;;;;;;;7.33;5.10;;;10.00;1.00;;;;;;5050258;28;20209;-69
2023/04/19 02:52:36;;;;;;;8.23;4.90;;;9.90;1.00;;;;;;5031650;28;20199;-70
2023/04/19 02:55:04;;;;;;;5.90;5.00;;;9.80;1.00;;;;;;5059180;28;20205;-68
2023/04/19 02:57:31;;;;;;;6.00;5.40;;;9.70;1.00;;;;;;5050436;28;20268;-66
2023/04/19 02:59:59;;;;;;;6.37;5.20;;;9.70;1.00;;;;;;5055251;28;20203;-67
2023/04/19 03:02:26;;;;;;;7.27;5.80;;;9.70;1.00;;;;;;5049896;28;20804;-67
2023/04/19 03:04:54;;;;;;;7.17;5.50;;;9.70;1.00;;;;;;5026088;28;21492;-67
2023/04/19 03:07:21;;;;;;;7.37;5.30;;;9.70;1.00;;;;;;5051768;28;20191;-66
2023/04/19 03:09:49;;;;;;;5.63;5.13;;;9.70;1.00;;;;;;5051998;28;20245;-66
2023/04/19 03:12:18;;;;;;;7.37;5.77;;;9.70;1.00;;;;;;5056636;28;20201;-67
2023/04/19 03:14:45;;;;;;;7.00;5.33;;;9.70;1.00;;;;;;5059317;28;20207;-66
2023/04/19 03:17:13;;;;;;;7.67;5.50;;;9.70;1.00;;;;;;5040318;28;20203;-67
2023/04/19 03:19:40;;;;;;;5.90;5.27;;;9.70;1.00;;;;;;5048992;28;20781;-66
2023/04/19 03:22:07;;;;;;;7.80;5.87;;;9.70;1.00;;;;;;5047270;28;20195;-67
2023/04/19 03:24:34;;;;;;;7.87;5.63;;;9.70;1.00;;;;;;5059331;28;20668;-66
2023/04/19 03:27:16;;;;;;;7.70;6.40;;;9.70;1.00;;;;;;5035692;28;20290;-66
2023/04/19 03:29:46;;;;;;;8.23;5.40;;;9.60;1.00;;;;;;5047661;28;20196;-67
2023/04/19 03:32:15;;;;;;;6.20;5.40;;;9.60;1.00;;;;;;5046978;28;20618;-66
2023/04/19 03:34:42;;;;;;;7.37;5.97;;;9.60;1.00;;;;;;5053606;28;20787;-66
2023/04/19 03:37:10;;;;;;;8.13;6.13;;;9.60;1.00;;;;;;5027790;28;20192;-66
2023/04/19 03:39:38;;;;;;;7.60;6.33;;;9.50;1.00;;;;;;5052144;28;20200;-66
2023/04/19 03:42:08;;;;;;;9.70;6.37;;;9.50;1.00;;;;;;5040780;28;20201;-66
2023/04/19 03:44:44;;;;;;;7.83;6.03;;;9.50;1.00;;;;;;5043341;28;20218;-67
2023/04/19 03:47:13;;;;;;;7.67;6.07;;;9.40;1.00;;;;;;5034602;28;20585;-66
2023/04/19 03:49:43;;;;;;;7.90;6.07;;;9.40;1.00;;;;;;5054195;28;20188;-66
2023/04/19 03:52:12;;;;;;;7.23;5.90;;;9.40;1.00;;;;;;5054187;28;20283;-66
2023/04/19 03:54:38;;;;;;;7.20;6.20;;;9.40;1.00;;;;;;5049384;28;20687;-66
2023/04/19 03:57:14;;;;;;;8.93;6.20;;;9.40;1.00;;;;;;5031006;28;20199;-67
2023/04/19 03:59:41;;;;;;;8.30;5.87;;;9.40;1.00;;;;;;5047717;28;20215;-66
2023/04/19 04:02:09;;;;;;;8.60;6.60;;;9.30;1.00;;;;;;5057484;28;20253;-66
2023/04/19 04:04:36;;;;;;;7.63;6.73;;;9.30;1.00;;;;;;5012766;28;20200;-67
2023/04/19 04:07:04;;;;;;;7.87;6.87;;;9.20;1.00;;;;;;5048547;28;20191;-66
2023/04/19 04:09:31;;;;;;;8.77;7.07;;;9.20;1.00;;;;;;5048651;28;20227;-66
2023/04/19 04:11:58;;;;;;;11.03;6.23;;;9.20;1.00;;;;;;5046276;28;20279;-67
2023/04/19 04:14:25;;;;;;;8.60;7.13;;;9.20;1.00;;;;;;5045980;28;20235;-66
2023/04/19 04:16:53;;;;;;;7.17;6.30;;;9.20;1.00;;;;;;5038652;28;20199;-66
2023/04/19 04:19:20;;;;;;;7.70;6.07;;;9.10;1.00;;;;;;5052420;28;20222;-66
2023/04/19 04:21:48;;;;;;;10.13;7.20;;;9.10;1.00;;;;;;5031943;28;20354;-66
2023/04/19 04:24:16;;;;;;;9.63;6.63;;;9.10;1.00;;;;;;5033841;28;20678;-65
2023/04/19 04:27:10;;;;;;;9.83;6.23;;;9.10;1.00;;;;;;5026951;28;20572;-65
2023/04/19 04:29:40;;;;;;;8.87;6.30;;;9.00;1.00;;;;;;5032678;28;20192;-66
2023/04/19 04:32:09;;;;;;;7.93;6.33;;;9.00;1.00;;;;;;5042351;28;20701;-66
2023/04/19 04:34:41;;;;;;;8.17;6.40;;;8.90;1.00;;;;;;5047572;28;21058;-66
2023/04/19 04:37:12;;;;;;;7.07;6.37;;;8.90;1.00;;;;;;5034119;28;20202;-67
2023/04/19 04:39:40;;;;;;;10.53;6.33;;;8.80;1.00;;;;;;5031280;28;20704;-66
2023/04/19 04:42:09;;;;;;;9.03;6.40;;;8.80;1.00;;;;;;5032069;28;20187;-67
2023/04/19 04:44:37;;;;;;;9.33;6.20;;;8.70;1.00;;;;;;5055338;28;20292;-66
2023/04/19 04:47:06;;;;;;;7.30;6.00;;;8.70;1.00;;;;;;5044373;28;20286;-66
2023/04/19 04:49:39;;;;;;;6.40;5.63;;;8.70;1.00;;;;;;5055132;28;20249;-66
2023/04/19 04:52:07;;;;;;;8.67;5.60;;;8.70;1.00;;;;;;5029424;28;20222;-66
2023/04/19 04:54:41;;;;;;;9.50;5.60;;;8.70;1.00;;;;;;5029344;28;20299;-67
2023/04/19 04:57:19;;;;;;;7.60;6.00;;;8.70;1.00;;;;;;5032072;28;20203;-66
2023/04/19 04:59:48;;;;;;;6.50;4.70;;;8.70;1.00;;;;;;5017309;28;20669;-67
2023/04/19 05:02:17;;;;;;;7.77;4.30;;;8.60;1.00;;;;;;5054656;28;20720;-66
2023/04/19 05:04:44;;;;;;;5.63;4.53;;;8.50;1.00;;;;;;5032937;28;20207;-67
2023/04/19 05:07:12;;;;;;;8.90;4.73;;;8.50;1.00;;;;;;5028600;28;20737;-67
2023/04/19 05:09:39;;;;;;;6.30;4.60;;;8.50;1.00;;;;;;5049299;28;20208;-66
2023/04/19 05:12:06;;;;;;;9.10;4.90;;;8.50;1.00;;;;;;5042558;28;20289;-67
2023/04/19 05:14:33;;;;;;;5.23;4.33;;;8.50;1.00;;;;;;5052156;28;20220;-67
2023/04/19 05:17:00;;;;;;;8.90;4.50;;;8.50;1.00;;;;;;5029989;28;20202;-66
2023/04/19 05:19:27;;;;;;;8.73;4.23;;;8.50;1.00;;;;;;5036642;28;20229;-67
2023/04/19 05:22:00;;;;;;;9.77;3.63;;;8.50;1.00;;;;;;5035240;28;20555;-67
2023/04/19 05:24:27;;;;;;;8.43;4.43;;;8.50;1.00;;;;;;5021177;28;20705;-67
2023/04/19 05:26:55;;;;;;;7.10;4.03;;;8.50;1.00;;;;;;5044633;28;20203;-66
2023/04/19 05:29:22;;;;;;;6.30;4.33;;;8.50;1.00;;;;;;5048106;28;20292;-67
2023/04/19 05:31:53;;;;;;;6.60;3.80;;;8.50;1.00;;;;;;5036049;28;20210;-67
2023/04/19 05:34:27;;;;;;;6.13;4.17;;;8.50;1.00;;;;;;5029354;28;20222;-67
2023/04/19 05:36:56;;;;;;;10.50;4.03;;;8.60;1.00;;;;;;5049559;28;20202;-66
2023/04/19 05:39:23;;;;;;;7.20;3.70;;;8.60;1.00;;;;;;5051426;28;20224;-66
2023/04/19 05:41:50;;;;;;;6.17;3.83;;;8.60;1.00;;;;;;5032255;28;20203;-67
2023/04/19 05:44:17;;;;;;;5.87;3.97;;;8.60;1.00;;;;;;5034304;28;20651;-66
2023/04/19 05:46:44;;;;;;;6.93;4.00;;;8.60;1.00;;;;;;5048957;28;20202;-66
2023/04/19 05:49:16;;;;;;;8.23;3.97;;;8.60;1.00;;;;;;5039567;28;20252;-67
2023/04/19 05:52:00;;;;;;;6.10;3.57;;;8.60;1.00;;;;;;5034061;28;20203;-66
2023/04/19 05:54:46;;;;;;;5.50;3.67;;;8.50;1.00;;;;;;5027640;28;20871;-67
2023/04/19 05:57:13;;;;;;;6.00;4.20;;;8.50;1.00;;;;;;5041725;28;20287;-67
2023/04/19 05:59:44;;;;;;;6.50;3.60;;;8.60;1.00;;;;;;5046609;28;20234;-66
2023/04/19 06:02:14;;;;;;;4.97;3.40;;;8.70;1.00;;;;;;5048246;28;20402;-66
2023/04/19 06:04:41;;;;;;;6.87;4.33;;;8.70;1.00;;;;;;5043776;28;20265;-66
2023/04/19 06:07:10;;;;;;;8.63;4.27;;;8.80;1.00;;;;;;5024682;28;20185;-66
2023/04/19 06:09:56;;;;;;;5.17;3.97;;;9.00;1.00;;;;;;5026862;28;20203;-67
2023/04/19 06:12:23;;;;;;;10.53;3.13;;;9.10;1.00;;;;;;5026969;28;20306;-66
2023/04/19 06:14:51;;;;;;;9.10;4.70;;;9.00;1.00;;;;;;5024246;28;20251;-65
2023/04/19 06:17:23;;;;;;;8.83;3.50;;;8.90;1.00;;;;;;5008283;28;20544;-67
2023/04/19 06:19:51;;;;;;;7.20;4.20;;;9.00;1.00;;;;;;5036647;28;20211;-67
2023/04/19 06:22:19;;;;;;;10.83;5.60;;;9.40;1.00;;;;;;5041838;28;20188;-67
2023/04/19 06:24:49;;;;;;;6.83;4.90;;;10.70;1.00;;;;;;5041309;28;20221;-67
2023/04/19 06:27:16;;;;;;;8.77;4.10;;;12.30;1.00;;;;;;5044100;28;20227;-67
2023/04/19 06:29:43;;;;;;;4.03;2.83;;;14.00;1.00;;;;;;5014673;28;20222;-67
2023/04/19 06:32:10;;;;;;;6.00;3.50;;;14.50;1.00;;;;;;5027619;28;20610;-67
2023/04/19 06:34:37;;;;;;;4.50;3.50;;;14.40;1.00;;;;;;5012554;28;20195;-67
2023/04/19 06:37:04;;;;;;;3.87;3.23;;;14.30;1.00;;;;;;5046901;28;20297;-67
2023/04/19 06:39:31;;;;;;;9.47;4.00;;;14.30;1.00;;;;;;5052109;28;20670;-67
2023/04/19 06:41:58;;;;;;;6.80;4.00;;;14.60;1.00;;;;;;5011025;28;20735;-67
2023/04/19 06:44:27;;;;;;;5.78;3.72;;;15.10;1.00;;;;;;5026536;28;20199;-67
2023/04/19 06:46:54;;;;;;;5.35;3.63;;;15.20;1.00;;;;;;5028927;28;20587;-67
2023/04/19 06:49:21;;;;;;;4.95;3.72;;;14.80;1.00;;;;;;5032540;28;20192;-67
2023/04/19 06:51:48;;;;;;;4.57;3.00;;;13.30;1.00;;;;;;5012565;28;20192;-67
2023/04/19 06:54:15;;;;;;;4.20;3.30;;;12.70;1.00;;;;;;5029582;28;20287;-67
2023/04/19 06:56:45;;;;;;;5.40;3.20;;;14.00;1.00;;;;;;5028367;28;20187;-66
2023/04/19 06:59:15;;;;;;;10.23;3.43;;;14.00;1.00;;;;;;5045226;28;20202;-67
2023/04/19 07:01:43;;;;;;;4.20;2.85;;;14.40;1.00;;;;;;5027547;28;20590;-67
2023/04/19 07:04:11;;;;;;;5.87;3.50;;;14.70;1.00;;;;;;5047287;28;20209;-67
2023/04/19 07:06:38;;;;;;;6.97;3.33;;;15.50;1.00;;;;;;5068260;28;21111;-67
2023/04/19 07:09:06;;;;;;;6.00;3.80;;;15.30;1.00;;;;;;5065921;28;20261;-67
2023/04/19 07:11:33;;;;;;;6.45;3.28;;;15.30;1.00;;;;;;5065199;28;20206;-67
2023/04/19 07:14:00;;;;;;;9.48;5.18;;;14.60;1.00;;;;;;5051830;28;20194;-67
2023/04/19 07:16:27;;;;;;;7.40;4.28;;;15.50;1.00;;;;;;5058591;28;20274;-68
2023/04/19 07:18:55;;;;;;;5.95;3.47;;;14.40;1.00;;;;;;5072009;28;20194;-67
2023/04/19 07:21:24;;;;;;;6.32;3.10;;;15.40;1.00;;;;;;5053980;28;20390;-67
2023/04/19 07:23:51;;;;;;;5.03;2.70;;;15.60;1.00;;;;;;5047756;28;20191;-67
2023/04/19 07:26:18;;;;;;;6.80;2.60;;;15.70;1.00;;;;;;5052786;28;20618;-67
2023/04/19 07:28:45;;;;;;;5.38;2.50;;;15.50;1.00;;;;;;5069767;28;20554;-68
2023/04/19 07:31:16;;;;;;;4.63;2.63;;;15.70;1.00;;;;;;5077244;28;20226;-67
2023/04/19 07:33:43;;;;;;;3.45;2.25;;;15.10;1.00;;;;;;5071715;28;20602;-67
2023/04/19 07:36:11;;;;;;;3.33;2.22;;;16.30;1.00;;;;;;5064101;28;20306;-67
2023/04/19 07:38:38;;;;;;;4.43;2.50;;;16.00;1.00;;;;;;5070418;28;20297;-67
2023/04/19 07:41:05;;;;;;;3.80;2.47;;;15.30;1.00;;;;;;5071135;28;20207;-67
2023/04/19 07:43:32;;;;;;;5.72;2.03;;;16.00;1.00;;;;;;5076058;28;20247;-68
2023/04/19 07:45:59;;;;;;;6.68;2.72;;;15.80;1.00;;;;;;5040152;28;20183;-67
2023/04/19 07:48:26;;;;;;;4.85;2.80;;;17.60;1.00;;;;;;5069154;28;20194;-67
2023/04/19 07:50:53;;;;;;;3.70;2.20;;;16.20;1.00;;;;;;5067745;28;20875;-67
2023/04/19 07:53:20;;;;;;;4.35;2.67;;;15.20;1.00;;;;;;5071833;28;20666;-67
2023/04/19 07:55:47;;;;;;;3.33;2.28;;;15.90;1.00;;;;;;5060382;28;20282;-67
2023/04/19 07:58:14;;;;;;;4.83;2.40;;;14.60;1.00;;;;;;5067018;28;20556;-68
2023/04/19 08:00:41;;;;;;;5.40;3.33;;;14.40;1.00;;;;;;5051269;28;20222;-66
2023/04/19 08:03:08;;;;;;;6.73;3.43;;;15.30;1.00;;;;;;5058675;28;20772;-66
2023/04/19 08:05:36;;;;;;;4.73;2.70;;;15.10;1.00;;;;;;5054153;28;20230;-66
2023/04/19 08:08:03;;;;;;;4.78;2.30;;;14.70;1.00;;;;;;5045519;28;20722;-66
2023/04/19 08:10:30;;;;;;;3.90;2.80;;;15.60;1.00;;;;;;5043222;28;20682;-66
2023/04/19 08:12:58;;;;;;;6.83;3.00;;;14.90;1.00;;;;;;5047553;28;20200;-66
2023/04/19 08:15:35;;;;;;;3.40;2.67;;;15.00;1.00;;;;;;5032084;28;20203;-66
2023/04/19 08:18:05;;;;;;;6.57;2.72;;;15.80;1.00;;;;;;5043221;28;20207;-66
2023/04/19 08:20:32;;;;;;;4.20;2.70;;;17.20;1.00;;;;;;5028956;28;20221;-67
2023/04/19 08:23:00;;;;;;;2.95;2.38;;;16.80;1.00;;;;;;5033968;28;20685;-66
2023/04/19 08:25:40;;;;;;;5.40;2.80;;;15.80;1.00;;;;;;5046860;28;20704;-66
2023/04/19 08:28:07;;;;;;;5.03;2.65;;;16.60;1.00;;;;;;5010122;28;20283;-66
2023/04/19 08:30:34;;;;;;;5.05;2.80;;;17.70;1.00;;;;;;5034175;28;20207;-66
2023/04/19 08:33:01;;;;;;;3.78;2.42;;;17.60;1.00;;;;;;5048120;28;20651;-67
2023/04/19 08:35:28;;;;;;;4.45;2.20;;;18.10;1.00;;;;;;5029122;28;20200;-67
2023/04/19 08:37:55;;;;;;;3.42;2.28;;;16.90;1.00;;;;;;5043380;28;20676;-66
2023/04/19 08:40:23;;;;;;;7.88;2.80;;;16.40;1.00;;;;;;5048679;28;20216;-67
2023/04/19 08:42:50;;;;;;;3.67;2.30;;;17.70;1.00;;;;;;5050327;28;20684;-66
2023/04/19 08:45:20;;;;;;;4.63;2.22;;;17.60;1.00;;;;;;5030719;28;20666;-66
2023/04/19 08:47:50;;;;;;;4.28;2.20;;;17.80;1.00;;;;;;5063494;28;20322;-66
2023/04/19 08:50:27;;;;;;;3.28;2.22;;;19.50;1.00;;;;;;5045184;28;20732;-67
2023/04/19 08:53:08;;;;;;;3.15;2.25;;;19.20;1.00;;;;;;5046565;28;20187;-66
2023/04/19 08:55:57;;;;;;;3.47;2.20;;;18.20;1.00;;;;;;5042109;28;20192;-66
2023/04/19 08:58:40;;;;;;;3.40;2.35;;;17.10;1.00;;;;;;5033783;28;20192;-66
2023/04/19 09:01:28;;;;;;;3.83;2.22;;;17.30;1.00;;;;;;5009055;28;20234;-66
2023/04/19 09:04:05;;;;;;;4.07;2.40;;;17.70;1.00;;;;;;5023176;28;20656;-66
2023/04/19 09:06:53;;;;;;;3.97;2.42;;;16.70;1.00;;;;;;5039419;28;20192;-66
2023/04/19 09:09:25;;;;;;;3.25;2.30;;;16.70;1.00;;;;;;5021679;28;20183;-68
2023/04/19 09:11:59;;;;;;;4.72;2.60;;;17.70;1.00;;;;;;5040823;28;20195;-66
2023/04/19 09:14:27;;;;;;;3.95;2.40;;;18.20;1.00;;;;;;5021540;28;20659;-68
2023/04/19 09:17:12;;;;;;;2.53;2.20;;;19.20;1.00;;;;;;5034166;28;20301;-66
2023/04/19 09:19:48;;;;;;;7.05;2.10;;;18.40;1.00;;;;;;5048546;28;20593;-68
2023/04/19 09:22:15;;;;;;;4.05;2.20;;;18.40;1.00;;;;;;5067714;28;20192;-66
2023/04/19 09:24:42;;;;;;;3.08;2.40;;;18.30;1.00;;;;;;5041627;28;20198;-67
2023/04/19 09:27:24;;;;;;;3.65;2.53;;;18.50;1.00;;;;;;5025518;28;20631;-68
2023/04/19 09:29:55;;;;;;;4.00;2.40;;;19.80;1.00;;;;;;5048808;28;20686;-67
2023/04/19 09:32:23;;;;;;;3.35;2.03;;;19.00;1.00;;;;;;5030917;28;20203;-68
2023/04/19 09:34:55;;;;;;;6.57;4.90;;;19.70;1.00;;;;;;5024301;28;20269;-66
2023/04/19 09:37:23;;;;;;;11.65;4.10;;;19.50;1.00;;;;;;5044055;28;20202;-67
2023/04/19 09:40:23;;;;;;;3.10;2.38;;;19.70;1.00;;;;;;5043142;28;20187;-67
2023/04/19 09:42:50;;;;;;;3.60;2.35;;;18.60;1.00;;;;;;5042297;28;20200;-67
2023/04/19 09:45:20;;;;;;;5.43;2.60;;;18.20;1.00;;;;;;5053658;28;20195;-67
2023/04/19 09:48:02;;;;;;;3.92;2.30;;;18.30;1.00;;;;;;5052838;28;20183;-66
2023/04/19 09:50:29;;;;;;;5.68;2.30;;;17.90;1.00;;;;;;5045339;28;20817;-69
2023/04/19 09:52:58;;;;;;;2.58;2.35;;;18.70;1.00;;;;;;5051107;28;20199;-67
2023/04/19 09:55:26;;;;;;;3.65;2.50;;;18.60;1.00;;;;;;5045350;28;20233;-67
2023/04/19 09:57:57;;;;;;;5.22;2.30;;;17.50;1.00;;;;;;5027979;28;20210;-67
2023/04/19 10:00:24;;;;;;;4.85;2.30;;;17.80;1.00;;;;;;5022864;28;20618;-67
2023/04/19 10:02:56;;;;;;;3.22;2.25;;;16.90;1.00;;;;;;5029599;28;20235;-67
2023/04/19 10:05:24;;;;;;;4.55;2.60;;;17.40;1.00;;;;;;5048888;28;20191;-67
2023/04/19 10:07:55;;;;;;;5.20;3.05;;;19.40;1.00;;;;;;5044831;28;20223;-66
2023/04/19 10:10:27;;;;;;;4.10;2.03;;;19.40;1.00;;;;;;5014815;28;20741;-67
2023/04/19 10:13:12;;;;;;;3.17;2.47;;;18.30;1.00;;;;;;5029093;28;20669;-67
2023/04/19 10:15:44;;;;;;;2.83;2.40;;;19.10;1.00;;;;;;5038363;28;20199;-66
2023/04/19 10:18:23;;;;;;;3.40;2.58;;;19.40;1.00;;;;;;5040414;28;20223;-66
2023/04/19 10:20:55;;;;;;;5.05;2.63;;;19.90;1.00;;;;;;5019509;28;20289;-66
2023/04/19 10:23:23;;;;;;;4.90;3.10;;;19.60;1.00;;;;;;5013066;28;20254;-68
2023/04/19 10:25:55;;;;;;;4.97;3.10;;;18.60;1.00;;;;;;5038155;28;20250;-66
2023/04/19 10:28:22;;;;;;;4.07;2.75;;;19.10;1.00;;;;;;5030861;28;20202;-66
2023/04/19 10:31:11;;;;;;;5.72;3.05;;;21.30;1.00;;;;;;5049621;28;20195;-66
2023/04/19 10:33:40;;;;;;;3.45;2.58;;;21.00;1.00;;;;;;5046397;28;20199;-66
2023/04/19 10:36:14;;;;;;;4.78;2.63;;;20.10;1.00;;;;;;5032792;28;20196;-66
2023/04/19 10:38:44;;;;;;;4.75;2.70;;;19.30;1.00;;;;;;5049494;28;20199;-66
2023/04/19 10:41:13;;;;;;;4.95;2.78;;;18.80;1.00;;;;;;5045283;28;20211;-66
2023/04/19 10:44:10;;;;;;;4.50;2.97;;;19.00;1.00;;;;;;5044922;28;20249;-66
2023/04/19 10:46:40;;;;;;;5.20;3.22;;;18.70;1.00;;;;;;5030135;28;20815;-66
2023/04/19 10:49:08;;;;;;;9.55;3.25;;;19.50;1.00;;;;;;5047697;28;20188;-66
2023/04/19 10:51:46;;;;;;;4.78;2.83;;;19.80;1.00;;;;;;5046340;28;20194;-66
2023/04/19 10:54:32;;;;;;;3.97;2.70;;;20.00;1.00;;;;;;5044960;28;20281;-67
2023/04/19 10:57:03;;;;;;;5.53;3.10;;;19.60;1.00;;;;;;5045167;28;20671;-65
2023/04/19 10:59:31;;;;;;;3.35;2.78;;;19.80;1.00;;;;;;5049489;28;20204;-65
2023/04/19 11:02:04;;;;;;;3.50;2.72;;;20.70;1.00;;;;;;5048074;28;20230;-65
2023/04/19 11:04:31;;;;;;;5.60;3.00;;;19.80;1.00;;;;;;5068203;28;20195;-67
2023/04/19 11:07:06;;;;;;;5.78;3.47;;;18.10;1.00;;;;;;5061419;28;20684;-67
2023/04/19 11:09:40;;;;;;;5.13;3.08;;;18.70;1.00;;;;;;5049232;28;20207;-67
2023/04/19 11:12:11;;;;;;;4.85;2.97;;;18.10;1.00;;;;;;5048983;28;20233;-68
2023/04/19 11:14:51;;;;;;;6.20;3.20;;;18.40;1.00;;;;;;5065639;28;20199;-68
2023/04/19 11:17:30;;;;;;;3.75;3.15;;;18.40;1.00;;;;;;5053811;28;21132;-65
2023/04/19 11:20:07;;;;;;;5.78;3.28;;;20.10;1.00;;;;;;5067958;28;20202;-65
2023/04/19 11:22:39;;;;;;;4.15;3.22;;;20.20;1.00;;;;;;5050252;28;20540;-65
2023/04/19 11:25:20;;;;;;;7.05;3.80;;;21.10;1.00;;;;;;5044057;28;20230;-65
2023/04/19 11:27:49;;;;;;;5.90;3.70;;;18.70;1.00;;;;;;5062683;28;20866;-65
2023/04/19 11:30:27;;;;;;;4.43;3.35;;;18.90;1.00;;;;;;5069350;28;20199;-66
2023/04/19 11:32:57;;;;;;;3.47;3.00;;;18.90;1.00;;;;;;5030215;28;20201;-66
2023/04/19 11:35:26;;;;;;;6.80;3.45;;;19.80;1.00;;;;;;5052432;28;20678;-66
2023/04/19 11:37:55;;;;;;;4.63;3.15;;;20.10;1.00;;;;;;5060331;28;20765;-66
2023/04/19 11:40:25;;;;;;;6.68;3.50;;;19.50;1.00;;;;;;5073913;28;20205;-68
2023/04/19 11:43:02;;;;;;;4.40;3.15;;;18.60;1.00;;;;;;5068519;28;20874;-66
2023/04/19 11:45:35;;;;;;;3.97;3.25;;;19.20;1.00;;;;;;5080117;28;20737;-67
2023/04/19 11:48:06;;;;;;;4.07;3.03;;;20.40;1.00;;;;;;5059883;28;20183;-66
2023/04/19 11:50:34;;;;;;;6.78;3.88;;;18.90;1.00;;;;;;5061895;28;20203;-66
2023/04/19 11:53:21;;;;;;;5.00;2.95;;;18.70;1.00;;;;;;5051456;28;20284;-68
2023/04/19 11:55:51;;;;;;;3.13;2.83;;;17.80;1.00;;;;;;5062183;28;20294;-68
2023/04/19 11:58:28;;;;;;;2.83;2.53;;;18.00;1.00;;;;;;5047058;28;20695;-67
2023/04/19 12:01:01;;;;;;;4.15;2.95;;;18.10;1.00;;;;;;5060821;28;20202;-67
2023/04/19 12:03:28;;;;;;;4.45;2.75;;;18.00;1.00;;;;;;5063611;28;20233;-67
2023/04/19 12:05:57;;;;;;;2.80;2.53;;;18.00;1.00;;;;;;5063296;28;20273;-68
2023/04/19 12:08:35;;;;;;;5.28;2.72;;;17.10;1.00;;;;;;5061692;28;20194;-67
2023/04/19 12:11:03;;;;;;;6.28;2.92;;;17.50;1.00;;;;;;5066023;28;20199;-68
2023/04/19 12:13:31;;;;;;;4.38;2.70;;;17.50;1.00;;;;;;5063869;28;20554;-67
2023/04/19 12:15:59;;;;;;;5.80;3.17;;;17.60;1.00;;;;;;5067678;28;20191;-67
2023/04/19 12:18:26;;;;;;;5.72;2.60;;;17.70;1.00;;;;;;5070764;28;20676;-67
2023/04/19 12:20:53;;;;;;;4.40;3.03;;;17.50;1.00;;;;;;5066073;28;20211;-67
2023/04/19 12:23:20;;;;;;;4.43;2.78;;;16.50;1.00;;;;;;5067653;28;20191;-67
2023/04/19 12:25:48;;;;;;;5.28;3.33;;;16.90;1.00;;;;;;5035607;28;20531;-67
2023/04/19 12:28:16;;;;;;;3.15;2.60;;;17.20;1.00;;;;;;5049674;28;20274;-68
2023/04/19 12:30:43;;;;;;;5.20;3.13;;;16.90;1.00;;;;;;5064968;28;20286;-66
2023/04/19 12:33:10;;;;;;;5.95;3.92;;;16.50;1.00;;;;;;5064804;28;20179;-66
2023/04/19 12:35:38;;;;;;;7.65;2.97;;;16.00;1.00;;;;;;5072026;28;20298;-67
2023/04/19 12:38:05;;;;;;;6.65;3.72;;;16.50;1.00;;;;;;5062183;28;20193;-67
2023/04/19 12:40:32;;;;;;;6.20;3.55;;;16.40;1.00;;;;;;5065485;28;20682;-67
2023/04/19 12:42:59;;;;;;;5.47;3.17;;;16.60;1.00;;;;;;5065676;28;20207;-67
2023/04/19 12:45:26;;;;;;;4.63;2.80;;;16.40;1.00;;;;;;5065922;28;20278;-67
2023/04/19 12:47:53;;;;;;;6.00;2.90;;;16.20;1.00;;;;;;5054069;28;20199;-67
2023/04/19 12:50:20;;;;;;;3.85;2.60;;;16.10;1.00;;;;;;5046653;28;20187;-67
2023/04/19 12:52:47;;;;;;;5.15;2.95;;;15.70;1.00;;;;;;5035066;28;20714;-66
2023/04/19 12:55:14;;;;;;;8.35;3.10;;;15.70;1.00;;;;;;5062895;28;20278;-67
2023/04/19 12:57:41;;;;;;;5.60;2.77;;;15.90;1.00;;;;;;5065402;28;20290;-67
2023/04/19 13:00:12;;;;;;;8.77;2.92;;;16.00;1.00;;;;;;5064986;28;20191;-66
2023/04/19 13:02:39;;;;;;;7.47;2.78;;;15.80;1.00;;;;;;5062986;28;20294;-67
2023/04/19 13:05:07;;;;;;;4.40;2.35;;;15.90;1.00;;;;;;5046374;28;20207;-67
2023/04/19 13:07:35;;;;;;;3.30;3.00;;;15.40;1.00;;;;;;5063219;28;20670;-67
2023/04/19 13:10:02;;;;;;;6.20;2.90;;;15.50;1.00;;;;;;5072032;28;20611;-67
2023/04/19 13:12:29;;;;;;;5.15;3.55;;;15.40;1.00;;;;;;5065830;28;20572;-66